createdAt,value
2023-05-18T00:00:45.756Z,2.27
2023-05-18T00:01:48.389Z,2.43
2023-05-18T00:02:50.823Z,2.53
2023-05-18T00:03:55.190Z,2.50
2023-05-18T00:04:57.926Z,2.20
2023-05-18T00:06:04.994Z,2.20
2023-05-18T00:07:07.429Z,2.63
2023-05-18T00:08:10.066Z,2.40
2023-05-18T00:09:12.738Z,2.93
2023-05-18T00:10:15.125Z,2.40
2023-05-18T00:11:18.094Z,2.40
2023-05-18T00:12:20.571Z,2.63
2023-05-18T00:13:22.872Z,2.73
2023-05-18T00:14:25.343Z,2.20
2023-05-18T00:15:27.901Z,2.27
2023-05-18T00:16:30.378Z,2.33
2023-05-18T00:17:33.143Z,2.30
2023-05-18T00:18:36.238Z,2.43
2023-05-18T00:19:38.510Z,2.50
2023-05-18T00:20:41.482Z,2.50
2023-05-18T00:21:46.448Z,2.20
2023-05-18T00:22:51.003Z,2.23
2023-05-18T00:23:53.410Z,2.13
2023-05-18T00:24:55.756Z,2.27
2023-05-18T00:26:02.418Z,2.83
2023-05-18T00:27:04.838Z,2.30
2023-05-18T00:28:07.893Z,2.60
2023-05-18T00:29:10.887Z,2.57
2023-05-18T00:30:13.728Z,2.40
2023-05-18T00:31:16.537Z,2.17
2023-05-18T00:32:18.949Z,2.40
2023-05-18T00:33:22.293Z,2.33
2023-05-18T00:34:25.044Z,2.40
2023-05-18T00:35:27.457Z,2.50
2023-05-18T00:36:30.054Z,2.20
2023-05-18T00:37:32.394Z,2.40
2023-05-18T00:38:34.764Z,2.73
2023-05-18T00:39:37.917Z,2.70
2023-05-18T00:40:40.383Z,2.70
2023-05-18T00:41:42.777Z,2.23
2023-05-18T00:42:45.052Z,2.10
2023-05-18T00:43:47.871Z,2.40
2023-05-18T00:44:50.332Z,2.50
2023-05-18T00:45:52.725Z,2.40
2023-05-18T00:46:55.055Z,2.50
2023-05-18T00:47:57.507Z,2.37
2023-05-18T00:49:02.288Z,2.40
2023-05-18T00:50:04.958Z,2.70
2023-05-18T00:51:07.681Z,2.77
2023-05-18T00:52:10.241Z,2.37
2023-05-18T00:53:13.380Z,2.33
2023-05-18T00:54:16.917Z,2.40
2023-05-18T00:55:19.895Z,2.50
2023-05-18T00:56:26.585Z,2.30
2023-05-18T00:57:30.000Z,2.50
2023-05-18T00:58:32.408Z,2.60
2023-05-18T00:59:35.064Z,2.47
2023-05-18T01:00:37.930Z,2.20
2023-05-18T01:01:46.971Z,2.20
2023-05-18T01:02:51.597Z,2.30
2023-05-18T01:03:56.882Z,2.50
2023-05-18T01:05:00.918Z,2.70
2023-05-18T01:06:05.989Z,2.33
2023-05-18T01:07:08.457Z,2.40
2023-05-18T01:08:10.984Z,2.53
2023-05-18T01:09:14.608Z,2.30
2023-05-18T01:10:20.010Z,2.63
2023-05-18T01:11:54.944Z,2.53
2023-05-18T01:13:03.134Z,2.37
2023-05-18T01:14:29.281Z,2.70
2023-05-18T01:15:37.516Z,2.50
2023-05-18T01:16:45.965Z,2.40
2023-05-18T01:18:05.075Z,2.50
2023-05-18T01:19:30.922Z,2.60
2023-05-18T01:20:57.882Z,2.40
2023-05-18T01:22:17.358Z,2.53
2023-05-18T01:23:45.113Z,2.40
2023-05-18T01:24:49.398Z,2.53
2023-05-18T01:25:54.493Z,2.33
2023-05-18T01:27:00.924Z,2.67
2023-05-18T01:28:10.361Z,2.50
2023-05-18T01:29:14.545Z,2.40
2023-05-18T01:30:18.335Z,2.50
2023-05-18T01:31:21.033Z,2.37
2023-05-18T01:32:23.408Z,2.40
2023-05-18T01:33:26.542Z,2.10
2023-05-18T01:34:29.151Z,2.40
2023-05-18T01:35:32.771Z,2.50
2023-05-18T01:36:35.182Z,2.53
2023-05-18T01:37:37.479Z,2.57
2023-05-18T01:38:43.121Z,2.40
2023-05-18T01:39:46.419Z,2.40
2023-05-18T01:41:18.437Z,2.73
2023-05-18T01:42:27.131Z,2.50
2023-05-18T01:43:36.674Z,2.60
2023-05-18T01:45:07.843Z,2.37
2023-05-18T01:46:28.527Z,2.50
2023-05-18T01:47:33.697Z,2.37
2023-05-18T01:48:39.304Z,2.20
2023-05-18T01:49:54.749Z,2.80
2023-05-18T01:50:58.927Z,2.37
2023-05-18T01:52:07.605Z,2.60
2023-05-18T01:53:15.725Z,2.37
2023-05-18T01:54:21.432Z,2.77
2023-05-18T01:55:27.157Z,2.40
2023-05-18T01:56:32.263Z,2.50
2023-05-18T01:57:37.119Z,2.60
2023-05-18T01:58:40.398Z,2.10
2023-05-18T01:59:43.328Z,2.50
2023-05-18T02:00:47.165Z,2.60
2023-05-18T02:01:50.945Z,2.23
2023-05-18T02:03:02.163Z,2.40
2023-05-18T02:04:12.008Z,2.40
2023-05-18T02:05:14.633Z,2.20
2023-05-18T02:06:17.279Z,2.37
2023-05-18T02:07:20.051Z,2.37
2023-05-18T02:08:22.458Z,2.40
2023-05-18T02:09:24.854Z,2.33
2023-05-18T02:10:27.325Z,2.50
2023-05-18T02:11:30.278Z,2.50
2023-05-18T02:12:33.632Z,2.27
2023-05-18T02:13:38.350Z,2.17
2023-05-18T02:14:40.783Z,2.40
2023-05-18T02:15:44.763Z,2.50
2023-05-18T02:16:53.451Z,2.60
2023-05-18T02:17:58.634Z,2.60
2023-05-18T02:19:01.269Z,2.43
2023-05-18T02:20:07.468Z,2.40
2023-05-18T02:21:10.637Z,2.50
2023-05-18T02:22:13.004Z,2.57
2023-05-18T02:23:16.230Z,2.33
2023-05-18T02:24:20.155Z,2.50
2023-05-18T02:25:22.629Z,2.70
2023-05-18T02:26:25.017Z,2.30
2023-05-18T02:27:28.473Z,2.30
2023-05-18T02:28:30.936Z,2.60
2023-05-18T02:29:33.305Z,2.37
2023-05-18T02:30:35.968Z,2.30
2023-05-18T02:31:39.062Z,2.40
2023-05-18T02:32:42.901Z,2.53
2023-05-18T02:33:45.236Z,2.63
2023-05-18T02:34:50.442Z,2.60
2023-05-18T02:35:55.153Z,2.60
2023-05-18T02:36:58.262Z,2.37
2023-05-18T02:38:01.830Z,2.40
2023-05-18T02:39:07.027Z,2.63
2023-05-18T02:40:11.162Z,2.60
2023-05-18T02:41:13.694Z,2.77
2023-05-18T02:42:15.998Z,2.30
2023-05-18T02:43:18.351Z,2.57
2023-05-18T02:44:20.725Z,2.40
2023-05-18T02:45:24.259Z,2.60
2023-05-18T02:46:26.887Z,2.80
2023-05-18T02:47:29.608Z,2.47
2023-05-18T02:48:31.993Z,2.40
2023-05-18T02:49:34.558Z,2.50
2023-05-18T02:50:37.098Z,2.70
2023-05-18T02:51:40.016Z,2.37
2023-05-18T02:52:42.415Z,2.47
2023-05-18T02:53:45.204Z,2.47
2023-05-18T02:54:49.994Z,2.40
2023-05-18T02:55:59.510Z,2.33
2023-05-18T02:57:06.733Z,2.27
2023-05-18T02:58:17.689Z,2.43
2023-05-18T02:59:34.742Z,2.30
2023-05-18T03:00:37.137Z,2.40
2023-05-18T03:01:41.297Z,2.40
2023-05-18T03:02:44.668Z,2.23
2023-05-18T03:03:47.496Z,2.40
2023-05-18T03:04:54.513Z,2.60
2023-05-18T03:05:56.909Z,2.33
2023-05-18T03:07:03.007Z,2.50
2023-05-18T03:08:06.863Z,2.50
2023-05-18T03:09:09.222Z,2.40
2023-05-18T03:10:16.916Z,2.57
2023-05-18T03:11:19.279Z,2.80
2023-05-18T03:12:21.876Z,2.70
2023-05-18T03:13:24.919Z,2.80
2023-05-18T03:14:27.326Z,2.60
2023-05-18T03:15:33.269Z,2.93
2023-05-18T03:16:39.050Z,2.80
2023-05-18T03:17:45.987Z,2.73
2023-05-18T03:18:48.648Z,2.60
2023-05-18T03:19:51.589Z,2.90
2023-05-18T03:20:53.903Z,2.57
2023-05-18T03:21:58.166Z,2.87
2023-05-18T03:23:00.877Z,2.40
2023-05-18T03:24:03.622Z,2.37
2023-05-18T03:25:08.143Z,2.97
2023-05-18T03:26:11.894Z,2.87
2023-05-18T03:27:16.847Z,2.80
2023-05-18T03:28:22.766Z,2.70
2023-05-18T03:29:25.099Z,2.83
2023-05-18T03:30:27.705Z,2.67
2023-05-18T03:31:30.190Z,2.50
2023-05-18T03:32:39.474Z,2.30
2023-05-18T03:33:41.768Z,2.63
2023-05-18T03:34:45.079Z,2.40
2023-05-18T03:35:49.387Z,2.60
2023-05-18T03:36:52.686Z,2.60
2023-05-18T03:37:55.645Z,2.70
2023-05-18T03:38:57.973Z,2.80
2023-05-18T03:40:11.084Z,2.37
2023-05-18T03:41:13.770Z,2.50
2023-05-18T03:42:16.218Z,2.80
2023-05-18T03:43:19.089Z,2.87
2023-05-18T03:44:22.440Z,2.57
2023-05-18T03:45:25.054Z,2.67
2023-05-18T03:46:27.478Z,2.73
2023-05-18T03:47:30.233Z,2.80
2023-05-18T03:48:32.571Z,2.60
2023-05-18T03:49:35.268Z,2.73
2023-05-18T03:50:37.831Z,2.60
2023-05-18T03:51:40.628Z,3.10
2023-05-18T03:52:44.762Z,2.70
2023-05-18T03:53:47.376Z,2.60
2023-05-18T03:54:50.413Z,2.40
2023-05-18T03:55:52.777Z,3.00
2023-05-18T03:56:55.987Z,2.50
2023-05-18T03:57:59.390Z,2.80
2023-05-18T03:59:02.245Z,2.50
2023-05-18T04:00:08.055Z,2.50
2023-05-18T04:01:19.718Z,2.40
2023-05-18T04:02:22.310Z,2.50
2023-05-18T04:03:27.278Z,3.13
2023-05-18T04:04:31.408Z,2.50
2023-05-18T04:05:34.015Z,2.37
2023-05-18T04:06:36.330Z,2.57
2023-05-18T04:07:44.409Z,2.60
2023-05-18T04:08:46.873Z,2.60
2023-05-18T04:09:49.627Z,2.20
2023-05-18T04:10:52.844Z,2.43
2023-05-18T04:11:56.053Z,2.30
2023-05-18T04:12:58.535Z,2.50
2023-05-18T04:14:01.310Z,2.33
2023-05-18T04:15:04.237Z,2.53
2023-05-18T04:16:08.194Z,2.50
2023-05-18T04:17:10.741Z,2.73
2023-05-18T04:18:13.935Z,2.70
2023-05-18T04:19:19.478Z,2.43
2023-05-18T04:20:21.770Z,2.60
2023-05-18T04:21:24.080Z,2.80
2023-05-18T04:22:30.027Z,2.60
2023-05-18T04:23:39.522Z,2.70
2023-05-18T04:24:43.232Z,2.60
2023-05-18T04:25:45.830Z,2.70
2023-05-18T04:26:49.325Z,2.53
2023-05-18T04:27:53.076Z,2.40
2023-05-18T04:29:00.423Z,2.40
2023-05-18T04:30:03.040Z,2.70
2023-05-18T04:31:06.287Z,2.30
2023-05-18T04:32:09.068Z,2.70
2023-05-18T04:33:16.037Z,2.60
2023-05-18T04:34:20.401Z,2.50
2023-05-18T04:35:25.454Z,2.50
2023-05-18T04:36:30.839Z,2.60
2023-05-18T04:37:34.682Z,2.87
2023-05-18T04:38:38.634Z,2.50
2023-05-18T04:39:42.490Z,2.63
2023-05-18T04:40:47.413Z,2.43
2023-05-18T04:41:50.969Z,2.70
2023-05-18T04:42:53.405Z,2.37
2023-05-18T04:44:03.768Z,2.30
2023-05-18T04:45:06.836Z,2.23
2023-05-18T04:46:09.597Z,2.30
2023-05-18T04:47:11.962Z,2.63
2023-05-18T04:48:14.588Z,2.20
2023-05-18T04:49:16.966Z,2.47
2023-05-18T04:50:20.213Z,2.40
2023-05-18T04:51:22.679Z,2.53
2023-05-18T04:52:25.114Z,2.70
2023-05-18T04:53:27.710Z,2.50
2023-05-18T04:54:33.094Z,2.40
2023-05-18T04:55:35.717Z,2.93
2023-05-18T04:56:43.760Z,2.83
2023-05-18T04:57:46.056Z,2.73
2023-05-18T04:58:49.834Z,2.60
2023-05-18T04:59:53.470Z,2.70
2023-05-18T05:00:57.665Z,2.40
2023-05-18T05:02:01.555Z,2.43
2023-05-18T05:03:04.110Z,2.60
2023-05-18T05:04:07.587Z,2.47
2023-05-18T05:05:10.050Z,2.47
2023-05-18T05:06:12.806Z,2.23
2023-05-18T05:07:15.133Z,2.70
2023-05-18T05:08:21.355Z,2.60
2023-05-18T05:09:23.682Z,2.77
2023-05-18T05:10:26.595Z,2.70
2023-05-18T05:11:29.302Z,2.55
2023-05-18T05:12:32.919Z,2.80
2023-05-18T05:13:36.384Z,2.60
2023-05-18T05:14:38.773Z,2.65
2023-05-18T05:15:41.396Z,2.60
2023-05-18T05:16:43.978Z,2.65
2023-05-18T05:17:47.836Z,2.30
2023-05-18T05:18:50.355Z,2.58
2023-05-18T05:19:52.863Z,2.60
2023-05-18T05:20:55.198Z,2.60
2023-05-18T05:21:58.230Z,2.60
2023-05-18T05:23:01.695Z,2.53
2023-05-18T05:24:06.308Z,2.60
2023-05-18T05:25:09.012Z,2.70
2023-05-18T05:26:12.676Z,2.60
2023-05-18T05:27:16.557Z,2.60
2023-05-18T05:28:19.155Z,2.53
2023-05-18T05:29:22.629Z,2.80
2023-05-18T05:30:25.020Z,2.72
2023-05-18T05:31:27.497Z,3.30
2023-05-18T05:33:42.010Z,3.60
2023-05-18T05:34:47.105Z,3.45
2023-05-18T05:35:53.361Z,3.30
2023-05-18T05:36:55.761Z,2.83
2023-05-18T05:37:58.856Z,3.13
2023-05-18T05:39:01.217Z,2.83
2023-05-18T05:40:06.649Z,2.85
2023-05-18T05:41:13.791Z,3.28
2023-05-18T05:42:17.495Z,3.38
2023-05-18T05:43:19.790Z,3.88
2023-05-18T05:44:24.409Z,3.30
2023-05-18T05:45:28.941Z,3.30
2023-05-18T05:46:34.340Z,3.10
2023-05-18T05:47:37.661Z,3.00
2023-05-18T05:48:40.453Z,3.40
2023-05-18T05:49:43.188Z,3.33
2023-05-18T05:50:47.057Z,3.33
2023-05-18T05:51:51.029Z,3.42
2023-05-18T05:52:54.788Z,2.70
2023-05-18T05:53:58.828Z,2.72
2023-05-18T05:55:01.313Z,2.85
2023-05-18T05:56:03.975Z,3.03
2023-05-18T05:57:08.572Z,2.95
2023-05-18T05:58:11.374Z,3.17
2023-05-18T05:59:13.845Z,3.20
2023-05-18T06:00:16.561Z,2.83
2023-05-18T06:01:29.303Z,3.08
2023-05-18T06:02:32.129Z,3.00
2023-05-18T06:03:36.186Z,2.92
2023-05-18T06:04:41.856Z,3.10
2023-05-18T06:05:44.878Z,2.90
2023-05-18T06:06:49.567Z,2.50
2023-05-18T06:07:52.989Z,3.15
2023-05-18T06:08:55.618Z,3.28
2023-05-18T06:09:59.273Z,3.00
2023-05-18T06:11:02.073Z,3.35
2023-05-18T06:12:05.450Z,2.88
2023-05-18T06:13:08.948Z,3.50
2023-05-18T06:14:24.034Z,2.97
2023-05-18T06:15:27.146Z,3.17
2023-05-18T06:16:29.538Z,3.25
2023-05-18T06:17:32.088Z,3.08
2023-05-18T06:18:36.567Z,3.40
2023-05-18T06:19:40.730Z,2.72
2023-05-18T06:20:43.072Z,3.03
2023-05-18T06:21:45.659Z,2.97
2023-05-18T06:22:48.511Z,3.00
2023-05-18T06:23:58.919Z,2.88
2023-05-18T06:25:16.026Z,3.30
2023-05-18T06:26:38.533Z,2.90
2023-05-18T06:28:01.180Z,2.80
2023-05-18T06:29:32.867Z,2.90
2023-05-18T06:31:04.470Z,3.45
2023-05-18T06:32:23.049Z,3.20
2023-05-18T06:33:29.545Z,3.00
2023-05-18T06:34:34.782Z,3.10
2023-05-18T06:35:37.089Z,2.75
2023-05-18T06:36:39.523Z,3.00
2023-05-18T06:37:41.854Z,3.00
2023-05-18T06:38:44.195Z,2.97
2023-05-18T06:39:46.526Z,3.20
2023-05-18T06:40:49.060Z,2.97
2023-05-18T06:41:52.315Z,2.72
2023-05-18T06:42:58.465Z,2.83
2023-05-18T06:44:12.790Z,2.63
2023-05-18T06:45:37.050Z,2.70
2023-05-18T06:46:49.199Z,2.58
2023-05-18T06:47:58.680Z,3.00
2023-05-18T06:49:02.587Z,2.83
2023-05-18T06:50:08.321Z,2.88
2023-05-18T06:51:11.194Z,3.20
2023-05-18T06:52:13.945Z,2.80
2023-05-18T06:53:18.605Z,2.72
2023-05-18T06:54:20.982Z,2.67
2023-05-18T06:55:23.807Z,2.95
2023-05-18T06:56:26.833Z,2.72
2023-05-18T06:57:32.189Z,2.75
2023-05-18T06:58:35.006Z,2.80
2023-05-18T06:59:41.319Z,2.72
2023-05-18T07:00:44.024Z,2.85
2023-05-18T07:01:48.227Z,2.60
2023-05-18T07:02:51.738Z,2.40
2023-05-18T07:03:54.298Z,2.70
2023-05-18T07:04:58.214Z,2.55
2023-05-18T07:06:00.909Z,2.75
2023-05-18T07:07:03.728Z,2.53
2023-05-18T07:08:07.655Z,2.55
2023-05-18T07:09:10.058Z,2.50
2023-05-18T07:10:12.461Z,2.30
2023-05-18T07:11:15.065Z,2.05
2023-05-18T07:12:17.780Z,2.38
2023-05-18T07:13:21.131Z,2.60
2023-05-18T07:14:24.237Z,2.60
2023-05-18T07:15:26.825Z,2.60
2023-05-18T07:16:29.313Z,2.60
2023-05-18T07:17:31.866Z,2.30
2023-05-18T07:18:34.296Z,2.50
2023-05-18T07:19:36.653Z,2.30
2023-05-18T07:20:38.968Z,2.58
2023-05-18T07:21:41.440Z,2.40
2023-05-18T07:22:44.128Z,2.40
2023-05-18T07:23:46.418Z,2.03
2023-05-18T07:24:49.812Z,2.42
2023-05-18T07:25:52.555Z,2.60
2023-05-18T07:26:54.925Z,2.35
2023-05-18T07:27:57.275Z,2.40
2023-05-18T07:28:59.561Z,2.35
2023-05-18T07:30:02.003Z,2.30
2023-05-18T07:31:05.079Z,2.47
2023-05-18T07:32:07.750Z,2.20
2023-05-18T07:33:10.855Z,2.33
2023-05-18T07:34:13.302Z,2.13
2023-05-18T07:35:17.211Z,2.33
2023-05-18T07:36:19.551Z,2.30
2023-05-18T07:37:22.419Z,2.15
2023-05-18T07:38:26.417Z,2.10
2023-05-18T07:39:30.070Z,1.85
2023-05-18T07:40:32.639Z,2.20
2023-05-18T07:41:35.134Z,2.03
2023-05-18T07:42:39.176Z,1.90
2023-05-18T07:43:41.714Z,2.00
2023-05-18T07:44:44.095Z,2.10
2023-05-18T07:45:46.409Z,1.90
2023-05-18T07:46:48.716Z,2.10
2023-05-18T07:47:51.154Z,2.25
2023-05-18T07:48:53.556Z,2.35
2023-05-18T07:49:56.121Z,2.13
2023-05-18T07:50:58.575Z,2.13
2023-05-18T07:52:07.387Z,2.20
2023-05-18T07:53:09.670Z,2.10
2023-05-18T07:54:12.038Z,2.15
2023-05-18T07:55:14.363Z,2.60
2023-05-18T07:56:17.014Z,2.50
2023-05-18T07:57:20.136Z,2.20
2023-05-18T07:58:22.414Z,2.00
2023-05-18T07:59:24.785Z,2.10
2023-05-18T08:00:28.206Z,2.00
2023-05-18T08:01:38.779Z,2.22
2023-05-18T08:02:41.186Z,2.25
2023-05-18T08:03:43.845Z,2.15
2023-05-18T08:04:47.770Z,2.35
2023-05-18T08:05:50.108Z,2.10
2023-05-18T08:06:55.046Z,2.13
2023-05-18T08:07:57.293Z,2.10
2023-05-18T08:08:59.637Z,2.13
2023-05-18T08:10:01.942Z,2.08
2023-05-18T08:11:05.206Z,1.90
2023-05-18T08:12:07.989Z,2.22
2023-05-18T08:13:10.371Z,1.80
2023-05-18T08:14:12.725Z,2.10
2023-05-18T08:15:15.042Z,2.05
2023-05-18T08:16:17.355Z,1.92
2023-05-18T08:17:19.984Z,2.13
2023-05-18T08:18:23.406Z,1.90
2023-05-18T08:19:26.184Z,1.90
2023-05-18T08:20:31.450Z,2.00
2023-05-18T08:21:33.784Z,2.10
2023-05-18T08:22:36.502Z,2.25
2023-05-18T08:23:39.126Z,1.70
2023-05-18T08:24:41.566Z,2.00
2023-05-18T08:25:43.966Z,2.10
2023-05-18T08:26:46.245Z,2.20
2023-05-18T08:27:48.847Z,2.40
2023-05-18T08:28:51.179Z,1.80
2023-05-18T08:29:53.487Z,1.95
2023-05-18T08:30:56.215Z,2.03
2023-05-18T08:31:58.681Z,1.77
2023-05-18T08:33:02.412Z,2.20
2023-05-18T08:34:06.362Z,2.17
2023-05-18T08:35:10.550Z,1.95
2023-05-18T08:36:12.924Z,1.92
2023-05-18T08:37:15.187Z,2.13
2023-05-18T08:38:17.626Z,1.90
2023-05-18T08:39:20.127Z,2.00
2023-05-18T08:40:22.451Z,2.10
2023-05-18T08:41:39.084Z,2.25
2023-05-18T08:42:54.712Z,2.17
2023-05-18T08:44:03.292Z,2.17
2023-05-18T08:45:14.320Z,2.13
2023-05-18T08:46:22.187Z,2.17
2023-05-18T08:47:26.895Z,2.00
2023-05-18T08:48:32.414Z,2.15
2023-05-18T08:49:35.683Z,2.30
2023-05-18T08:50:38.581Z,2.17
2023-05-18T08:51:45.363Z,2.22
2023-05-18T08:52:48.656Z,2.63
2023-05-18T08:53:54.882Z,2.13
2023-05-18T08:54:57.719Z,2.47
2023-05-18T08:56:01.658Z,2.30
2023-05-18T08:57:10.221Z,1.80
2023-05-18T08:58:16.830Z,2.50
2023-05-18T08:59:24.162Z,2.60
2023-05-18T09:00:27.267Z,2.30
2023-05-18T09:01:29.887Z,2.35
2023-05-18T09:02:33.911Z,2.03
2023-05-18T09:03:38.168Z,2.50
2023-05-18T09:04:42.755Z,2.38
2023-05-18T09:05:46.488Z,2.10
2023-05-18T09:06:49.746Z,2.00
2023-05-18T09:07:52.483Z,2.30
2023-05-18T09:08:57.884Z,2.40
2023-05-18T09:10:01.850Z,2.20
2023-05-18T09:11:06.631Z,2.20
2023-05-18T09:12:09.815Z,2.55
2023-05-18T09:13:13.878Z,2.25
2023-05-18T09:14:16.443Z,2.22
2023-05-18T09:15:19.033Z,2.40
2023-05-18T09:16:21.506Z,2.22
2023-05-18T09:17:24.222Z,1.95
2023-05-18T09:18:28.412Z,2.17
2023-05-18T09:19:31.145Z,2.22
2023-05-18T09:20:33.490Z,2.28
2023-05-18T09:21:36.010Z,2.45
2023-05-18T09:22:41.258Z,2.22
2023-05-18T09:23:44.830Z,2.20
2023-05-18T09:24:47.792Z,2.20
2023-05-18T09:25:52.574Z,2.00
2023-05-18T09:26:54.960Z,2.35
2023-05-18T09:27:57.343Z,2.30
2023-05-18T09:29:00.377Z,2.13
2023-05-18T09:30:03.753Z,2.05
2023-05-18T09:31:12.841Z,2.05
2023-05-18T09:32:15.269Z,1.85
2023-05-18T09:33:19.357Z,2.03
2023-05-18T09:34:21.909Z,2.10
2023-05-18T09:35:24.930Z,1.95
2023-05-18T09:36:29.401Z,2.25
2023-05-18T09:37:32.316Z,1.83
2023-05-18T09:38:39.821Z,2.25
2023-05-18T09:39:42.545Z,2.28
2023-05-18T09:40:46.223Z,2.00
2023-05-18T09:41:55.913Z,2.10
2023-05-18T09:42:58.261Z,2.22
2023-05-18T09:44:05.345Z,1.90
2023-05-18T09:45:10.866Z,2.10
2023-05-18T09:46:13.968Z,2.00
2023-05-18T09:47:17.806Z,2.15
2023-05-18T09:48:21.158Z,1.95
2023-05-18T09:49:24.711Z,2.03
2023-05-18T09:50:27.585Z,2.22
2023-05-18T09:51:30.153Z,1.98
2023-05-18T09:52:41.199Z,1.90
2023-05-18T09:54:06.903Z,1.95
2023-05-18T09:55:10.614Z,1.90
2023-05-18T09:56:15.349Z,2.03
2023-05-18T09:57:21.148Z,2.10
2023-05-18T09:58:23.782Z,2.08
2023-05-18T09:59:26.232Z,2.10
2023-05-18T10:00:28.978Z,2.00
2023-05-18T10:01:31.381Z,2.00
2023-05-18T10:02:38.384Z,2.05
2023-05-18T10:03:41.166Z,2.10
2023-05-18T10:04:44.855Z,2.00
2023-05-18T10:05:48.220Z,2.08
2023-05-18T10:06:51.476Z,2.10
2023-05-18T10:07:57.471Z,2.22
2023-05-18T10:09:04.912Z,2.17
2023-05-18T10:10:09.121Z,2.30
2023-05-18T10:11:12.066Z,2.08
2023-05-18T10:12:20.053Z,2.00
2023-05-18T10:13:26.623Z,2.10
2023-05-18T10:14:36.575Z,2.05
2023-05-18T10:15:47.348Z,1.77
2023-05-18T10:17:00.355Z,1.88
2023-05-18T10:18:11.155Z,2.03
2023-05-18T10:19:13.589Z,1.73
2023-05-18T10:20:19.478Z,1.90
2023-05-18T10:21:22.793Z,1.92
2023-05-18T10:22:26.411Z,2.10
2023-05-18T10:23:32.000Z,1.98
2023-05-18T10:24:38.391Z,2.03
2023-05-18T10:25:42.770Z,2.20
2023-05-18T10:26:47.817Z,1.80
2023-05-18T10:27:51.636Z,2.00
2023-05-18T10:28:57.006Z,1.85
2023-05-18T10:29:59.847Z,1.90
2023-05-18T10:31:02.227Z,2.20
2023-05-18T10:32:07.681Z,2.10
2023-05-18T10:33:20.636Z,1.83
2023-05-18T10:34:32.995Z,2.13
2023-05-18T10:35:38.575Z,1.65
2023-05-18T10:36:43.021Z,1.85
2023-05-18T10:37:49.272Z,2.00
2023-05-18T10:38:52.332Z,2.42
2023-05-18T10:39:56.098Z,2.10
2023-05-18T10:41:04.674Z,1.90
2023-05-18T10:42:08.904Z,1.70
2023-05-18T10:43:12.017Z,1.73
2023-05-18T10:44:15.956Z,1.90
2023-05-18T10:45:18.883Z,1.90
2023-05-18T10:46:26.801Z,1.80
2023-05-18T10:47:29.751Z,1.70
2023-05-18T10:48:32.337Z,1.70
2023-05-18T10:49:36.502Z,1.95
2023-05-18T10:50:40.325Z,1.77
2023-05-18T10:51:47.515Z,1.83
2023-05-18T10:52:50.467Z,2.08
2023-05-18T10:53:56.120Z,1.70
2023-05-18T10:55:00.292Z,2.10
2023-05-18T10:56:02.816Z,2.13
2023-05-18T10:57:05.499Z,1.88
2023-05-18T10:58:14.315Z,2.10
2023-05-18T10:59:18.718Z,2.10
2023-05-18T11:00:21.353Z,2.03
2023-05-18T11:01:23.936Z,2.13
2023-05-18T11:02:27.601Z,1.98
2023-05-18T11:03:33.256Z,1.77
2023-05-18T11:04:36.437Z,2.25
2023-05-18T11:05:42.899Z,1.90
2023-05-18T11:06:54.710Z,1.90
2023-05-18T11:08:01.689Z,2.47
2023-05-18T11:09:04.214Z,2.20
2023-05-18T11:10:11.518Z,2.00
2023-05-18T11:11:16.489Z,2.10
2023-05-18T11:12:23.034Z,2.17
2023-05-18T11:13:29.661Z,2.22
2023-05-18T11:14:32.729Z,2.25
2023-05-18T11:15:53.978Z,2.65
2023-05-18T11:17:31.830Z,2.42
2023-05-18T11:18:50.616Z,2.35
2023-05-18T11:20:08.993Z,2.90
2023-05-18T11:21:36.456Z,2.50
2023-05-18T11:22:43.030Z,1.92
2023-05-18T11:24:16.622Z,1.83
2023-05-18T11:25:25.740Z,2.00
2023-05-18T11:26:31.515Z,1.83
2023-05-18T11:27:34.365Z,2.10
2023-05-18T11:28:43.781Z,2.30
2023-05-18T11:29:47.740Z,2.45
2023-05-18T11:30:51.653Z,2.40
2023-05-18T11:31:55.253Z,2.13
2023-05-18T11:33:25.116Z,1.88
2023-05-18T11:34:46.398Z,1.92
2023-05-18T11:36:11.730Z,1.90
2023-05-18T11:37:16.067Z,1.75
2023-05-18T11:38:18.653Z,1.80
2023-05-18T11:39:25.076Z,1.70
2023-05-18T11:40:47.960Z,1.83
2023-05-18T11:42:01.266Z,1.80
2023-05-18T11:43:05.024Z,2.00
2023-05-18T11:44:18.277Z,1.70
2023-05-18T11:45:20.608Z,1.60
2023-05-18T11:46:22.889Z,1.98
2023-05-18T11:47:31.789Z,1.88
2023-05-18T11:48:34.484Z,1.63
2023-05-18T11:49:42.946Z,1.63
2023-05-18T11:50:47.129Z,2.03
2023-05-18T11:52:01.741Z,1.90
2023-05-18T11:53:04.165Z,1.80
2023-05-18T11:54:09.254Z,2.33
2023-05-18T11:55:14.560Z,2.15
2023-05-18T11:56:17.507Z,1.80
2023-05-18T11:57:25.139Z,1.85
2023-05-18T11:58:27.443Z,1.88
2023-05-18T11:59:32.230Z,1.80
2023-05-18T12:00:36.310Z,1.80
2023-05-18T12:01:38.709Z,1.90
2023-05-18T12:02:45.882Z,2.05
2023-05-18T12:03:50.836Z,1.88
2023-05-18T12:04:55.154Z,1.85
2023-05-18T12:06:00.827Z,2.30
2023-05-18T12:07:06.850Z,2.00
2023-05-18T12:08:09.856Z,2.28
2023-05-18T12:09:13.585Z,2.00
2023-05-18T12:10:16.352Z,1.80
2023-05-18T12:11:18.824Z,1.77
2023-05-18T12:12:23.539Z,3.47
2023-05-18T12:13:27.887Z,2.67
2023-05-18T12:14:31.542Z,2.20
2023-05-18T12:15:34.144Z,3.00
2023-05-18T12:16:37.033Z,2.25
2023-05-18T12:17:42.848Z,2.00
2023-05-18T12:18:52.131Z,2.20
2023-05-18T12:19:54.775Z,2.10
2023-05-18T12:20:57.146Z,2.10
2023-05-18T12:21:59.541Z,1.90
2023-05-18T12:23:01.830Z,1.90
2023-05-18T12:24:04.697Z,2.25
2023-05-18T12:25:08.030Z,1.73
2023-05-18T12:26:10.438Z,1.98
2023-05-18T12:27:13.374Z,2.00
2023-05-18T12:28:17.340Z,1.65
2023-05-18T12:29:22.055Z,1.63
2023-05-18T12:30:26.290Z,1.92
2023-05-18T12:31:28.661Z,2.55
2023-05-18T12:32:31.107Z,2.70
2023-05-18T12:33:34.404Z,2.20
2023-05-18T12:34:37.786Z,2.20
2023-05-18T12:35:40.562Z,1.70
2023-05-18T12:36:54.848Z,1.67
2023-05-18T12:38:00.750Z,1.70
2023-05-18T12:39:03.352Z,2.00
2023-05-18T12:40:07.339Z,1.65
2023-05-18T12:41:09.780Z,2.05
2023-05-18T12:42:14.544Z,2.00
2023-05-18T12:43:16.898Z,1.90
2023-05-18T12:44:19.243Z,2.03
2023-05-18T12:45:24.680Z,2.00
2023-05-18T12:46:27.239Z,2.00
2023-05-18T12:47:33.303Z,1.73
2023-05-18T12:48:37.262Z,2.00
2023-05-18T12:49:48.248Z,1.88
2023-05-18T12:50:51.933Z,1.80
2023-05-18T12:51:57.389Z,2.00
2023-05-18T12:53:00.725Z,2.00
2023-05-18T12:54:04.265Z,1.80
2023-05-18T12:55:10.828Z,1.58
2023-05-18T12:56:13.270Z,1.90
2023-05-18T12:57:16.604Z,1.80
2023-05-18T12:58:21.106Z,1.85
2023-05-18T12:59:23.413Z,2.22
2023-05-18T13:00:26.033Z,1.90
2023-05-18T13:01:28.482Z,1.80
2023-05-18T13:02:37.381Z,1.73
2023-05-18T13:03:41.253Z,1.50
2023-05-18T13:04:43.760Z,1.80
2023-05-18T13:05:47.328Z,1.92
2023-05-18T13:06:50.162Z,1.90
2023-05-18T13:07:52.915Z,1.90
2023-05-18T13:08:58.342Z,1.90
2023-05-18T13:10:02.728Z,1.63
2023-05-18T13:12:14.176Z,1.70
2023-05-18T13:13:16.807Z,2.13
2023-05-18T13:14:23.569Z,1.83
2023-05-18T13:15:25.976Z,2.00
2023-05-18T13:16:30.677Z,1.88
2023-05-18T13:17:33.223Z,1.88
2023-05-18T13:18:35.849Z,1.88
2023-05-18T13:19:38.242Z,1.80
2023-05-18T13:20:51.233Z,1.85
2023-05-18T13:21:58.841Z,1.52
2023-05-18T13:23:07.577Z,1.90
2023-05-18T13:24:09.898Z,1.80
2023-05-18T13:25:12.197Z,2.03
2023-05-18T13:26:15.293Z,1.52
2023-05-18T13:27:17.613Z,2.08
2023-05-18T13:28:21.701Z,1.60
2023-05-18T13:29:24.033Z,1.80
2023-05-18T13:30:26.445Z,1.83
2023-05-18T13:31:29.947Z,1.90
2023-05-18T13:32:33.688Z,1.92
2023-05-18T13:33:36.130Z,2.20
2023-05-18T13:34:38.445Z,2.10
2023-05-18T13:35:42.418Z,1.90
2023-05-18T13:36:44.801Z,2.05
2023-05-18T13:37:49.121Z,2.00
2023-05-18T13:38:52.520Z,2.50
2023-05-18T13:39:54.894Z,2.25
2023-05-18T13:40:57.176Z,1.98
2023-05-18T13:42:00.318Z,1.90
2023-05-18T13:43:02.658Z,1.60
2023-05-18T13:44:05.182Z,1.88
2023-05-18T13:45:08.211Z,1.90
2023-05-18T13:46:10.715Z,2.00
2023-05-18T13:47:13.034Z,1.95
2023-05-18T13:48:15.517Z,1.80
2023-05-18T13:49:19.405Z,1.90
2023-05-18T13:50:23.204Z,2.20
2023-05-18T13:51:25.680Z,1.90
2023-05-18T13:52:28.134Z,1.95
2023-05-18T13:53:30.814Z,2.00
2023-05-18T13:54:33.154Z,1.67
2023-05-18T13:55:36.000Z,2.03
2023-05-18T13:56:38.339Z,1.98
2023-05-18T13:57:41.105Z,1.75
2023-05-18T13:58:44.887Z,1.70
2023-05-18T13:59:47.610Z,1.90
2023-05-18T14:00:50.015Z,2.03
2023-05-18T14:01:52.529Z,2.00
2023-05-18T14:02:55.093Z,1.80
2023-05-18T14:03:58.843Z,1.83
2023-05-18T14:05:01.175Z,1.80
2023-05-18T14:06:03.817Z,2.00
2023-05-18T14:07:06.236Z,2.45
2023-05-18T14:08:08.689Z,1.90
2023-05-18T14:09:11.147Z,2.10
2023-05-18T14:10:14.126Z,1.80
2023-05-18T14:11:16.447Z,1.80
2023-05-18T14:12:18.788Z,2.03
2023-05-18T14:13:21.056Z,1.90
2023-05-18T14:14:23.507Z,2.15
2023-05-18T14:15:26.164Z,1.90
2023-05-18T14:16:30.000Z,2.00
2023-05-18T14:17:33.036Z,1.83
2023-05-18T14:18:35.437Z,1.83
2023-05-18T14:19:37.918Z,1.70
2023-05-18T14:20:40.279Z,2.00
2023-05-18T14:21:42.701Z,1.90
2023-05-18T14:22:45.074Z,2.00
2023-05-18T14:23:48.494Z,2.00
2023-05-18T14:24:50.873Z,2.30